Terminal Aerodrome Forecast
Issued by NWS

Home | Current Version | Previous Version | Text Only | Print | Product List | Glossary On
Versions: 1 2 3 4 5 6 7 8 9 10 11 12 13 14
000
FTUS46 KLOX 240541
TAFBUR
TAF
KBUR 240541Z 2406/2506 17006KT P6SM OVC045
     FM241200 16008KT P6SM OVC025
     FM241900 17010KT P6SM BKN035
     FM250400 VRB04KT P6SM OVC025=

USA.gov is the U.S. government's official web portal to all federal, state and local government web resources and services.